createdAt,value
2019-01-06T00:00:43.335Z,6.87
2019-01-06T00:03:37.980Z,6.80
2019-01-06T00:06:37.661Z,6.78
2019-01-06T00:09:35.880Z,6.83
2019-01-06T00:12:20.317Z,6.81
2019-01-06T00:15:21.098Z,6.79
2019-01-06T00:18:18.850Z,6.83
2019-01-06T00:21:06.189Z,6.83
2019-01-06T00:24:10.532Z,6.84
2019-01-06T00:26:58.641Z,6.84
2019-01-06T00:29:45.713Z,6.80
2019-01-06T00:32:39.839Z,6.84
2019-01-06T00:35:43.348Z,6.74
2019-01-06T00:38:30.528Z,6.80
2019-01-06T00:41:17.577Z,6.81
2019-01-06T00:44:21.294Z,6.79
2019-01-06T00:47:09.401Z,6.83
2019-01-06T00:50:04.025Z,6.75
2019-01-06T00:52:52.083Z,6.87
2019-01-06T00:55:39.465Z,6.79
2019-01-06T00:58:26.595Z,6.76
2019-01-06T01:01:32.982Z,6.75
2019-01-06T01:04:19.768Z,6.80
2019-01-06T01:07:23.286Z,6.78
2019-01-06T01:10:20.421Z,6.76
2019-01-06T01:13:08.005Z,6.75
2019-01-06T01:16:08.685Z,6.80
2019-01-06T01:18:55.785Z,6.82
2019-01-06T01:21:43.939Z,6.82
2019-01-06T01:24:27.978Z,6.78
2019-01-06T01:27:34.919Z,6.78
2019-01-06T01:30:23.387Z,6.78
2019-01-06T01:33:20.257Z,6.80
2019-01-06T01:36:07.103Z,6.73
2019-01-06T01:38:54.675Z,6.77
2019-01-06T01:41:58.526Z,6.75
2019-01-06T01:45:05.092Z,6.74
2019-01-06T01:47:59.640Z,6.75
2019-01-06T01:50:46.909Z,6.69
2019-01-06T01:53:44.249Z,6.72
2019-01-06T01:56:30.919Z,6.74
2019-01-06T01:59:22.422Z,6.79
2019-01-06T02:02:26.010Z,6.74
2019-01-06T02:05:07.412Z,6.72
2019-01-06T02:07:54.668Z,6.75
2019-01-06T02:10:42.391Z,6.80
2019-01-06T02:13:36.409Z,6.80
2019-01-06T02:16:23.621Z,6.73
2019-01-06T02:19:10.883Z,6.70
2019-01-06T02:21:59.015Z,6.71
2019-01-06T02:25:02.827Z,6.79
2019-01-06T02:27:51.124Z,6.76
2019-01-06T02:30:51.884Z,6.78
2019-01-06T02:33:42.839Z,6.77
2019-01-06T02:36:34.808Z,6.78
2019-01-06T02:39:25.978Z,6.76
2019-01-06T02:42:17.876Z,6.77
2019-01-06T02:45:05.533Z,6.75
2019-01-06T02:47:52.457Z,6.69
2019-01-06T02:50:46.141Z,6.72
2019-01-06T02:53:46.526Z,6.76
2019-01-06T02:56:40.804Z,6.74
2019-01-06T02:59:28.220Z,6.79
2019-01-06T03:02:34.876Z,6.75
2019-01-06T03:05:38.196Z,6.72
2019-01-06T03:08:25.366Z,6.74
2019-01-06T03:11:25.659Z,6.72
2019-01-06T03:14:08.501Z,6.71
2019-01-06T03:17:00.922Z,6.69
2019-01-06T03:19:47.743Z,6.73
2019-01-06T03:22:54.149Z,6.67
2019-01-06T03:25:41.177Z,6.68
2019-01-06T03:28:29.683Z,6.61
2019-01-06T03:31:26.832Z,6.67
2019-01-06T03:34:18.286Z,6.63
2019-01-06T03:37:09.310Z,6.64
2019-01-06T03:39:53.344Z,6.66
2019-01-06T03:42:41.540Z,6.62
2019-01-06T03:45:36.237Z,6.66
2019-01-06T03:48:23.645Z,6.68
2019-01-06T03:51:21.457Z,6.64
2019-01-06T03:54:24.698Z,6.65
2019-01-06T03:57:11.951Z,6.67
2019-01-06T04:00:07.795Z,6.59
2019-01-06T04:02:47.793Z,6.69
2019-01-06T04:05:48.228Z,6.65
2019-01-06T04:08:35.380Z,6.67
2019-01-06T04:11:32.588Z,6.61
2019-01-06T04:14:21.461Z,6.61
2019-01-06T04:17:08.403Z,6.60
2019-01-06T04:20:08.676Z,6.58
2019-01-06T04:22:55.861Z,6.60
2019-01-06T04:25:42.972Z,6.54
2019-01-06T04:28:34.264Z,6.55
2019-01-06T04:31:29.802Z,6.60
2019-01-06T04:34:21.533Z,6.62
2019-01-06T04:37:08.970Z,6.62
2019-01-06T04:40:09.426Z,6.57
2019-01-06T04:43:03.850Z,6.61
2019-01-06T04:45:51.992Z,6.63
2019-01-06T04:48:49.132Z,6.60
2019-01-06T04:51:35.996Z,6.67
2019-01-06T04:54:36.461Z,6.60
2019-01-06T04:57:33.380Z,6.57
2019-01-06T05:00:21.847Z,6.59
2019-01-06T05:03:25.146Z,6.63
2019-01-06T05:06:16.590Z,6.61
2019-01-06T05:09:03.825Z,6.60
2019-01-06T05:11:51.937Z,6.62
2019-01-06T05:14:40.877Z,6.59
2019-01-06T05:17:28.092Z,6.60
2019-01-06T05:20:22.392Z,6.70
2019-01-06T05:23:09.641Z,6.53
2019-01-06T05:26:00.971Z,6.66
2019-01-06T05:28:53.725Z,6.57
2019-01-06T05:31:40.972Z,6.61
2019-01-06T05:34:42.890Z,6.60
2019-01-06T05:37:36.821Z,6.61
2019-01-06T05:40:25.303Z,6.62
2019-01-06T05:43:12.625Z,6.59
2019-01-06T05:45:59.800Z,6.58
2019-01-06T05:49:06.469Z,6.55
2019-01-06T05:52:00.568Z,6.57
2019-01-06T05:54:54.628Z,6.57
2019-01-06T05:57:41.803Z,6.58
2019-01-06T06:00:32.937Z,6.57
2019-01-06T06:03:30.395Z,6.54
2019-01-06T06:06:21.735Z,6.57
2019-01-06T06:09:09.337Z,6.57
2019-01-06T06:12:09.499Z,6.52
2019-01-06T06:14:56.309Z,6.52
2019-01-06T06:17:50.729Z,6.45
2019-01-06T06:20:41.821Z,6.50
2019-01-06T06:23:30.498Z,6.47
2019-01-06T06:26:18.152Z,6.55
2019-01-06T06:29:15.617Z,6.49
2019-01-06T06:32:02.931Z,6.47
2019-01-06T06:34:59.835Z,6.46
2019-01-06T06:37:57.388Z,6.45
2019-01-06T06:40:55.261Z,6.49
2019-01-06T06:43:42.681Z,6.54
2019-01-06T06:46:29.983Z,6.52
2019-01-06T06:49:17.610Z,6.50
2019-01-06T06:51:57.318Z,6.45
2019-01-06T06:54:51.505Z,6.49
2019-01-06T06:58:15.142Z,6.41
2019-01-06T07:01:06.489Z,6.43
2019-01-06T07:04:02.315Z,6.36
2019-01-06T07:07:08.614Z,6.39
2019-01-06T07:09:55.091Z,6.50
2019-01-06T07:12:41.920Z,6.41
2019-01-06T07:15:29.018Z,6.50
2019-01-06T07:18:24.516Z,6.49
2019-01-06T07:21:11.604Z,6.54
2019-01-06T07:24:03.988Z,6.50
2019-01-06T07:26:51.158Z,6.50
2019-01-06T07:29:39.223Z,6.49
2019-01-06T07:32:36.422Z,6.48
2019-01-06T07:35:23.623Z,6.51
2019-01-06T07:38:30.168Z,6.52
2019-01-06T07:41:30.687Z,6.42
2019-01-06T07:44:29.185Z,6.48
2019-01-06T07:47:17.290Z,6.41
2019-01-06T07:50:04.635Z,6.44
2019-01-06T07:52:55.591Z,6.49
2019-01-06T07:55:42.801Z,6.37
2019-01-06T07:58:40.375Z,6.36
2019-01-06T08:01:27.761Z,6.35
2019-01-06T08:04:19.393Z,6.34
2019-01-06T08:07:08.017Z,6.46
2019-01-06T08:09:55.434Z,6.41
2019-01-06T08:12:46.281Z,6.36
2019-01-06T08:15:33.014Z,6.51
2019-01-06T08:18:36.713Z,6.44
2019-01-06T08:21:31.400Z,6.42
2019-01-06T08:24:18.888Z,6.49
2019-01-06T08:27:12.760Z,6.63
2019-01-06T08:30:07.890Z,6.54
2019-01-06T08:32:55.225Z,6.43
2019-01-06T08:35:42.301Z,6.54
2019-01-06T08:38:36.677Z,6.52
2019-01-06T08:41:27.790Z,6.60
2019-01-06T08:44:14.645Z,6.59
2019-01-06T08:47:17.864Z,6.58
2019-01-06T08:50:05.022Z,6.70
2019-01-06T08:52:53.639Z,6.73
2019-01-06T08:55:44.511Z,6.70
2019-01-06T08:58:33.425Z,6.78
2019-01-06T09:01:40.328Z,6.66
2019-01-06T09:04:31.263Z,6.66
2019-01-06T09:07:19.032Z,6.62
2019-01-06T09:10:06.060Z,6.65
2019-01-06T09:13:00.397Z,6.62
2019-01-06T09:15:47.454Z,6.71
2019-01-06T09:18:39.299Z,6.79
2019-01-06T09:21:24.301Z,6.77
2019-01-06T09:24:06.118Z,6.87
2019-01-06T09:26:57.460Z,6.77
2019-01-06T09:29:46.382Z,6.75
2019-01-06T09:32:49.715Z,6.88
2019-01-06T09:35:36.785Z,6.78
2019-01-06T09:38:43.196Z,6.84
2019-01-06T09:41:30.287Z,6.92
2019-01-06T09:44:37.022Z,6.92
2019-01-06T09:47:27.524Z,7.01
2019-01-06T09:50:28.421Z,6.80
2019-01-06T09:53:19.601Z,6.87
2019-01-06T09:56:10.923Z,6.78
2019-01-06T09:58:58.627Z,6.80
2019-01-06T10:01:46.787Z,6.77
2019-01-06T10:04:35.112Z,6.89
2019-01-06T10:07:23.585Z,6.80
2019-01-06T10:10:10.997Z,6.82
2019-01-06T10:12:58.150Z,6.79
2019-01-06T10:15:49.419Z,6.94
2019-01-06T10:18:36.888Z,6.89
2019-01-06T10:21:28.191Z,6.87
2019-01-06T10:24:22.469Z,7.00
2019-01-06T10:27:10.920Z,7.04
2019-01-06T10:30:17.168Z,6.99
2019-01-06T10:33:08.363Z,7.10
2019-01-06T10:35:55.548Z,6.96
2019-01-06T10:38:50.111Z,6.97
2019-01-06T10:41:50.975Z,7.04
2019-01-06T10:44:48.464Z,7.06
2019-01-06T10:47:35.305Z,7.03
2019-01-06T10:50:22.579Z,6.91
2019-01-06T10:53:22.796Z,6.87
2019-01-06T10:56:26.207Z,6.97
2019-01-06T10:59:32.754Z,6.99
2019-01-06T11:02:23.634Z,7.00
2019-01-06T11:05:10.373Z,7.07
2019-01-06T11:08:13.766Z,7.03
2019-01-06T11:11:00.786Z,7.18
2019-01-06T11:14:07.659Z,7.11
2019-01-06T11:16:55.998Z,7.31
2019-01-06T11:19:47.886Z,7.42
2019-01-06T11:22:36.107Z,7.39
2019-01-06T11:25:32.414Z,7.35
2019-01-06T11:28:19.634Z,7.53
2019-01-06T11:31:06.659Z,7.50
2019-01-06T11:33:53.873Z,7.30
2019-01-06T11:36:41.995Z,7.11
2019-01-06T11:39:29.491Z,7.24
2019-01-06T11:42:21.396Z,7.23
2019-01-06T11:45:05.889Z,7.19
2019-01-06T11:47:53.098Z,7.18
2019-01-06T11:50:47.568Z,7.02
2019-01-06T11:53:26.414Z,7.01
2019-01-06T11:56:17.473Z,7.05
2019-01-06T11:59:04.539Z,6.97
2019-01-06T12:01:58.705Z,7.04
2019-01-06T12:04:42.262Z,7.14
2019-01-06T12:07:33.638Z,7.12
2019-01-06T12:10:40.850Z,7.07
2019-01-06T12:13:40.880Z,6.96
2019-01-06T12:16:35.132Z,7.06
2019-01-06T12:19:38.363Z,6.97
2019-01-06T12:22:25.846Z,6.94
2019-01-06T12:25:11.028Z,6.85
2019-01-06T12:28:14.566Z,6.99
2019-01-06T12:31:01.386Z,7.00
2019-01-06T12:33:48.620Z,7.03
2019-01-06T12:36:36.871Z,6.90
2019-01-06T12:39:24.690Z,6.87
2019-01-06T12:42:31.600Z,6.89
2019-01-06T12:45:25.201Z,6.80
2019-01-06T12:48:13.350Z,6.90
2019-01-06T12:51:04.726Z,6.95
2019-01-06T12:53:52.214Z,6.94
2019-01-06T12:56:39.373Z,6.92
2019-01-06T12:59:39.538Z,6.84
2019-01-06T13:02:37.613Z,6.90
2019-01-06T13:05:38.000Z,6.96
2019-01-06T13:08:24.211Z,6.74
2019-01-06T13:11:11.498Z,6.82
2019-01-06T13:13:58.533Z,6.87
2019-01-06T13:16:58.742Z,6.77
2019-01-06T13:19:53.510Z,6.89
2019-01-06T13:22:42.030Z,6.85
2019-01-06T13:25:33.188Z,6.85
2019-01-06T13:28:30.139Z,6.99
2019-01-06T13:31:18.245Z,6.99
2019-01-06T13:34:06.338Z,6.94
2019-01-06T13:36:53.512Z,6.99
2019-01-06T13:39:44.536Z,6.79
2019-01-06T13:42:32.257Z,6.85
2019-01-06T13:45:35.270Z,6.85
2019-01-06T13:48:29.762Z,6.72
2019-01-06T13:51:36.187Z,6.82
2019-01-06T13:54:29.955Z,6.89
2019-01-06T13:57:12.314Z,6.75
2019-01-06T14:00:06.825Z,6.79
2019-01-06T14:02:51.534Z,6.78
2019-01-06T14:05:38.186Z,6.72
2019-01-06T14:08:24.958Z,6.68
2019-01-06T14:11:12.216Z,6.60
2019-01-06T14:14:03.452Z,6.62
2019-01-06T14:17:09.856Z,6.56
2019-01-06T14:20:04.353Z,6.53
2019-01-06T14:22:51.001Z,6.52
2019-01-06T14:25:32.393Z,6.65
2019-01-06T14:28:26.454Z,6.43
2019-01-06T14:31:15.166Z,6.42
2019-01-06T14:34:16.616Z,6.41
2019-01-06T14:37:06.651Z,6.33
2019-01-06T14:39:44.474Z,6.28
2019-01-06T14:42:25.114Z,6.29
2019-01-06T14:45:12.173Z,6.32
2019-01-06T14:48:00.729Z,6.30
2019-01-06T14:50:47.687Z,6.27
2019-01-06T14:53:45.982Z,6.29
2019-01-06T14:56:32.870Z,6.28
2019-01-06T14:59:20.196Z,6.25
2019-01-06T15:02:07.013Z,6.25
2019-01-06T15:04:58.200Z,6.28
2019-01-06T15:07:55.121Z,6.28
2019-01-06T15:10:55.623Z,6.22
2019-01-06T15:13:43.386Z,6.25
2019-01-06T15:16:30.514Z,6.23
2019-01-06T15:19:17.617Z,6.25
2019-01-06T15:22:05.116Z,6.19
2019-01-06T15:24:56.287Z,6.28
2019-01-06T15:27:59.607Z,6.27
2019-01-06T15:30:53.885Z,6.22
2019-01-06T15:33:40.749Z,6.17
2019-01-06T15:36:35.338Z,6.23
2019-01-06T15:39:27.527Z,6.27
2019-01-06T15:42:18.512Z,6.22
2019-01-06T15:45:05.841Z,6.23
2019-01-06T15:47:54.321Z,6.25
2019-01-06T15:50:41.987Z,6.30
2019-01-06T15:53:25.635Z,6.35
2019-01-06T15:56:13.229Z,6.35
2019-01-06T15:59:16.729Z,6.26
2019-01-06T16:02:05.397Z,6.25
2019-01-06T16:05:05.916Z,6.26
2019-01-06T16:07:54.679Z,6.20
2019-01-06T16:10:52.198Z,6.15
2019-01-06T16:13:52.437Z,6.15
2019-01-06T16:16:40.523Z,6.11
2019-01-06T16:19:28.951Z,6.08
2019-01-06T16:22:35.563Z,6.09
2019-01-06T16:25:42.548Z,6.03
2019-01-06T16:28:29.423Z,6.03
2019-01-06T16:31:17.597Z,6.07
2019-01-06T16:34:05.158Z,6.04
2019-01-06T16:36:52.216Z,6.07
2019-01-06T16:39:39.658Z,6.02
2019-01-06T16:42:27.768Z,6.03
2019-01-06T16:45:24.881Z,6.04
2019-01-06T16:48:31.974Z,5.98
2019-01-06T16:51:18.773Z,5.96
2019-01-06T16:54:15.771Z,5.92
2019-01-06T16:57:02.751Z,5.76
2019-01-06T16:59:57.808Z,5.73
2019-01-06T17:03:04.718Z,5.73
2019-01-06T17:05:52.373Z,5.69
2019-01-06T17:08:38.367Z,5.70
2019-01-06T17:11:35.716Z,5.77
2019-01-06T17:14:22.602Z,5.70
2019-01-06T17:17:10.004Z,5.72
2019-01-06T17:20:07.430Z,5.70
2019-01-06T17:22:58.707Z,5.61
2019-01-06T17:25:53.022Z,5.62
2019-01-06T17:28:41.569Z,5.58
2019-01-06T17:31:32.679Z,5.62
2019-01-06T17:34:19.898Z,5.66
2019-01-06T17:37:14.005Z,5.68
2019-01-06T17:40:09.196Z,5.75
2019-01-06T17:42:57.445Z,5.74
2019-01-06T17:45:44.655Z,5.66
2019-01-06T17:48:48.716Z,5.66
2019-01-06T17:51:35.699Z,5.74
2019-01-06T17:54:36.950Z,5.70
2019-01-06T17:57:21.117Z,5.71
2019-01-06T18:00:12.962Z,5.67
2019-01-06T18:03:00.080Z,5.71
2019-01-06T18:05:42.926Z,5.72
2019-01-06T18:08:43.257Z,5.65
2019-01-06T18:11:30.815Z,5.74
2019-01-06T18:14:24.583Z,5.77
2019-01-06T18:17:12.796Z,5.70
2019-01-06T18:20:10.061Z,5.68
2019-01-06T18:22:57.409Z,5.68
2019-01-06T18:25:44.322Z,5.68
2019-01-06T18:28:31.531Z,5.63
2019-01-06T18:31:18.778Z,5.68
2019-01-06T18:34:13.060Z,5.61
2019-01-06T18:37:19.753Z,5.54
2019-01-06T18:40:14.182Z,5.43
2019-01-06T18:43:18.257Z,5.47
2019-01-06T18:46:05.125Z,5.53
2019-01-06T18:48:48.549Z,5.53
2019-01-06T18:51:54.023Z,5.43
2019-01-06T18:54:45.596Z,5.44
2019-01-06T18:57:37.202Z,5.36
2019-01-06T19:00:35.580Z,5.43
2019-01-06T19:03:22.997Z,5.44
2019-01-06T19:06:11.223Z,5.51
2019-01-06T19:08:59.131Z,5.50
2019-01-06T19:11:46.158Z,5.52
2019-01-06T19:14:34.855Z,5.54
2019-01-06T19:17:40.725Z,5.44
2019-01-06T19:20:28.967Z,5.38
2019-01-06T19:23:23.262Z,5.35
2019-01-06T19:26:10.621Z,5.34
2019-01-06T19:29:03.011Z,5.34
2019-01-06T19:31:55.291Z,5.39
2019-01-06T19:34:52.846Z,5.37
2019-01-06T19:37:44.700Z,5.37
2019-01-06T19:40:49.246Z,5.35
2019-01-06T19:43:39.232Z,5.31
2019-01-06T19:46:30.408Z,5.25
2019-01-06T19:49:18.689Z,5.26
2019-01-06T19:52:26.392Z,5.21
2019-01-06T19:55:24.877Z,5.21
2019-01-06T19:58:20.194Z,5.22
2019-01-06T20:01:09.646Z,5.14
2019-01-06T20:04:01.601Z,5.08
2019-01-06T20:06:52.404Z,5.02
2019-01-06T20:09:54.889Z,5.18
2019-01-06T20:12:53.881Z,5.25
2019-01-06T20:15:52.163Z,5.26
2019-01-06T20:18:35.682Z,5.30
2019-01-06T20:21:35.662Z,5.27
2019-01-06T20:24:23.654Z,5.14
2019-01-06T20:27:22.247Z,5.08
2019-01-06T20:30:12.129Z,5.04
2019-01-06T20:33:04.414Z,5.03
2019-01-06T20:35:52.105Z,5.02
2019-01-06T20:38:46.670Z,5.00
2019-01-06T20:41:33.618Z,4.96
2019-01-06T20:44:20.883Z,4.95
2019-01-06T20:47:11.858Z,4.99
2019-01-06T20:50:03.882Z,4.97
2019-01-06T20:53:10.432Z,4.99
2019-01-06T20:56:07.927Z,5.06
2019-01-06T20:59:14.529Z,5.03
2019-01-06T21:02:14.878Z,4.99
2019-01-06T21:05:03.327Z,5.04
2019-01-06T21:07:50.599Z,4.96
2019-01-06T21:10:41.810Z,4.97
2019-01-06T21:13:28.542Z,5.05
2019-01-06T21:16:23.402Z,4.97
2019-01-06T21:19:11.196Z,4.98
2019-01-06T21:22:05.106Z,4.98
2019-01-06T21:24:52.246Z,4.97
2019-01-06T21:27:40.381Z,4.94
2019-01-06T21:30:40.865Z,4.88
2019-01-06T21:33:47.463Z,4.84
2019-01-06T21:36:34.894Z,4.85
2019-01-06T21:39:38.682Z,4.83
2019-01-06T21:42:39.215Z,4.84
2019-01-06T21:45:36.912Z,4.88
2019-01-06T21:48:27.969Z,4.90
2019-01-06T21:51:16.085Z,4.92
2019-01-06T21:54:04.174Z,4.90
2019-01-06T21:56:51.356Z,4.93
2019-01-06T21:59:38.763Z,4.92
2019-01-06T22:02:26.257Z,4.88
2019-01-06T22:05:13.721Z,4.91
2019-01-06T22:07:56.942Z,4.90
2019-01-06T22:10:57.080Z,4.91
2019-01-06T22:13:48.404Z,4.93
2019-01-06T22:16:35.334Z,4.93
2019-01-06T22:19:35.640Z,4.93
2019-01-06T22:22:29.890Z,4.96
2019-01-06T22:25:16.458Z,4.89
2019-01-06T22:28:07.404Z,4.88
2019-01-06T22:30:54.652Z,4.88
2019-01-06T22:34:00.983Z,4.85
2019-01-06T22:37:04.034Z,4.85
2019-01-06T22:40:10.430Z,4.85
2019-01-06T22:42:57.380Z,4.85
2019-01-06T22:45:57.419Z,4.81
2019-01-06T22:48:49.676Z,4.84
2019-01-06T22:51:41.298Z,4.81
2019-01-06T22:54:28.414Z,4.82
2019-01-06T22:57:11.894Z,4.77
2019-01-06T22:59:59.110Z,4.72
2019-01-06T23:02:56.352Z,4.66
2019-01-06T23:05:47.701Z,4.60
2019-01-06T23:08:34.543Z,4.55
2019-01-06T23:11:28.847Z,4.56
2019-01-06T23:14:12.275Z,4.59
2019-01-06T23:16:59.481Z,4.61
2019-01-06T23:19:57.064Z,4.60
2019-01-06T23:22:44.630Z,4.63
2019-01-06T23:25:31.343Z,4.60
2019-01-06T23:28:25.883Z,4.56
2019-01-06T23:31:29.415Z,4.55
2019-01-06T23:34:23.492Z,4.55
2019-01-06T23:37:10.752Z,4.52
2019-01-06T23:40:14.820Z,4.54
2019-01-06T23:43:02.152Z,4.54
2019-01-06T23:45:48.998Z,4.54
2019-01-06T23:48:38.103Z,4.56
2019-01-06T23:51:32.589Z,4.54
2019-01-06T23:54:23.634Z,4.53
2019-01-06T23:57:09.903Z,4.51
